Cagayan De Oro, Philippines
Current Conditions -  °F | °C
As of 6:00 AM on Saturday 29 Nov 2014 (Local Time) from RPMD Reporting Station
Haze Haze  
Wind Chill: 75°   Ceiling: 29000
Heat Index: 75°   Visibility: 2.1mi
Dew Point: 73°   Wind: 6mph
Humidity: 94%   Direction: 360°N
Pressure: 29.8"   Gusts: NA
Location:  8.45342°N, 124.6191°E
Report Text: RPMD 282200Z 36005KT 3500 HZ SCT016 BKN290 24/23 Q1009 RMK A2980
Loading
Personal Weather Stations






























Interactive Weather Map New forecast layout! Learn more

10-Day Weather Forecast

Advertisements
Track Severe Weather on mobile